AirNav   Pilot Hours Calculator
 
 883 users online  

0MO7 SSM Health St Joseph Hospital-Lake St. Louis Heliport
Lake Saint Louis, Missouri, USA

GOING TO LAKE SAINT LOUIS?


FAA INFORMATION EFFECTIVE 28 MARCH 2019

Location

FAA Identifier: 0MO7
Lat/Long: 38-48-11.8100N / 090-46-34.5300W
38-48.196833N / 090-46.575500W
38.8032806 / -90.7762583
(estimated)
Elevation: 531 ft. / 162 m (estimated)
Variation: 02E (1985)
From city: 1 mile N of LAKE SAINT LOUIS, MO
Time zone: UTC -5 (UTC -6 during Standard Time)
Zip code: 63367

Heliport Operations

Heliport use: Private use, MEDICAL USE.
Activation date: 06/1991
Control tower: no
ARTCC: KANSAS CITY CENTER
FSS: SAINT LOUIS FLIGHT SERVICE STATION
Attendance: UNATNDD
Wind indicator: yes
Segmented circle: no
Lights: FOR PERI LGTS CALL 636-625-5200.

Heliport Communications

WX ASOS at SUS (10 nm SE): 134.8 (314-890-7255)
WX AWOS-3 at FYG (16 nm SW): 121.325 (636-433-5914)
WX ASOS at SET (18 nm NE): 118.075 (636-250-4590)
WX ASOS at STL (19 nm E): PHONE 314-890-4790

Nearby radio navigation aids

VOR radial/distance  VOR name  Freq  Var
FTZr049/11.2FORISTELL VORTAC110.8005E
STLr255/14.2ST LOUIS VORTAC117.4001E
CSXr279/19.7CARDINAL VOR/DME116.4500E

 
NDB name  Hdg/Dist  Freq  Var  ID
SNOOP358/9.932601WSU ... ..-
EAVES306/13.122701WFZ ..-. --..
OBLIO272/14.133801WLM .-.. --
CIVIC MEMORIAL262/34.126301WCVM -.-. ...- --

Heliport Services

Runway Information

Helipad H1

Dimensions: 65 x 65 ft. / 20 x 20 m
Surface: concrete
Runway edge lights: PERI
Latitude: 38-48.196833N
Longitude: 090-46.575500W
Elevation: 530.0 ft.
Traffic pattern: leftleft

Heliport Ownership and Management from official FAA records

Ownership: Privately-owned
Owner: SSM HEALTH CARE ST. LOUIS
1015 CORPORATE SQUARE DRIVE, SUITE 110
ST.LOUIS, MO 63132
Phone (314) 989-2155
Manager: RODGER GLAUS
1015 CORPORATE SQUARE DRIVE, SUITE 110
ST. LOUIS, MO 63132
Phone (314) 989-2155
GENE WALKENHORST, 100 MEDICAL PLAZA, LAKE ST. LOUIS, MO 63367, 636-625-5319 AND LESLIE THORNBURG, 314-989-6134 - LESLIE.THORNBURG@SSMHEALTH.COM

Additional Remarks

OWNER DESIRES HELIPAD NOT BE CHARTED.
FOR CD CTC ST LOUIS APCH AT 314-890-1018.

Instrument Procedures

There are no published instrument procedures at 0MO7.

Some nearby airports with instrument procedures:

KSUS - Spirit of St Louis Airport (10 nm SE)
1H0 - Creve Coeur Airport (13 nm E)
KFYG - Washington Regional Airport (16 nm SW)
KSET - St Charles County Smartt Airport (18 nm NE)
KSTL - St Louis Lambert International Airport (19 nm E)
 
Loc | Ops | Rwys | IFR | FBO | Links
Com | Nav | Svcs | Stats | Notes

Kansas City Aviation Department
 
Area around 0MO7 (SSM Health St Joseph Hospital-Lake St. Louis Heliport)
 
Road maps at: MapQuest Bing Google
 
Aerial photo
No photo
 
Sectional chart

 
Airport distance calculator
Flying to SSM Health St Joseph Hospital-Lake St. Louis Heliport? Find the distance to fly.

From to 0MO7

Sunrise and sunset
Times for 21-Apr-2019
 Local
(UTC-5)
 Zulu
(UTC)
Morning civil twilight05:5110:51
Sunrise06:1911:19
Sunset19:4400:44
Evening civil twilight20:1201:12

Current date and time
Zulu (UTC)  22-Apr-2019 01:35:54
Local (UTC-5)  21-Apr-2019 20:35:54
 
METAR
KSUS 
11nm SE 
220054Z 12006KT 10SM CLR 24/08 A2995 RMK AO2 SLP140 T02390078
KFYG 
16nm SW 
220115Z AUTO 14010KT 10SM CLR 24/08 A2994 RMK AO2
KSET 
18nm NE 
220054Z AUTO 13010KT 10SM CLR 22/09 A2996 RMK AO2 SLP144 T02170089
KSTL 
19nm E 
220051Z 14015KT 10SM FEW250 23/07 A2998 RMK AO2 SLP145 T02330072
TAF
KSUS 
11nm SE 
212051Z 2121/2218 16010G17KT P6SM SKC FM220300 17005KT P6SM BKN130 FM221600 18012G18KT P6SM SCT200
KSTL 
19nm E 
212050Z 2121/2224 15009KT P6SM SKC FM221600 18012G18KT P6SM SCT200
NOTAMs
Click for the latest NOTAMs
NOTAMs are issued by the DoD/FAA and will open in a separate window not controlled by AirNav.

 

 
 

Would you like to see your business listed on this page?

 If your business provides an interesting product or service to pilots, flight crews, aircraft, or users of the SSM Health St Joseph Hospital-Lake St. Louis Heliport, you should consider listing it here.  To start the listing process, click on the button below
 
Add a business
 

Other Pages about SSM Health St Joseph Hospital-Lake St. Louis Heliport

Update a link
 
Copyright © AirNav, LLC. All rights reserved. Privacy Policy  Contact